EBOS

Ostend-Bruges International Airport

Ostend, Belgium
TAF EBOS 151120Z 1512/1618 17005KT CAVOK BECMG 1512/1514 2500 BR PROB40 1513/1610 0500 FG BKN001 BECMG 1610/1612 8000 NSW
Issued Valid From Valid To
Nov-15 @ 11:20 UTC
(an hour ago)
Nov-15 @ 12:00 UTC
(43 minutes ago)
Nov-16 @ 18:00 UTC
(-1 days ago)
Nov-15 @ 12:00 to Nov-16 @ 18:00
TAF EBOS 151120Z 1512/1618 17005KT CAVOK
Wind Visibility Clouds Conditions
170° at 5 knots 10,000+ meters
  • No significant clouds
Becoming Nov-15 @ 12:00 to Nov-16 @ 10:00
BECMG 1512/1514 2500 BR
Wind Visibility Clouds Conditions
170° at 5 knots 2,494 meters
  • No significant clouds
  • Mist
Probable  (Probability 40%) Nov-15 @ 13:00 to Nov-16 @ 10:00
PROB40 1513/1610 0500 FG BKN001
Visibility Clouds Conditions
499 meters
  • Broken at 100' AGL
  • Fog
Becoming Nov-16 @ 10:00 to Nov-16 @ 18:00
BECMG 1610/1612 8000 NSW
Wind Visibility Clouds Conditions
170° at 5 knots 7,998 meters
  • No significant clouds
TAF EBOS 151120Z 1512/1618 17005KT CAVOK BECMG 1512/1514 2500 BR PROB40 1513/1610 0500 FG BKN001 BECMG 1610/1612 8000 NSW
Issued Nov-15 @ 11:20 UTC
(an hour ago)
Valid From Nov-15 @ 12:00 UTC
(43 minutes ago)
Valid To Nov-16 @ 18:00 UTC
(-1 days ago)
Nov-15 @ 12:00 - Nov-16 @ 18:00
Wind Visibility
170° at 5 knots 10,000+ meters
Clouds
  • No significant clouds
Conditions
Becoming Nov-15 @ 12:00 - Nov-16 @ 10:00
Wind Visibility
170° at 5 knots 2,494 meters
Clouds
  • No significant clouds
Conditions
  • Mist
Probability 40% Probable Nov-15 @ 13:00 - Nov-16 @ 10:00
Clouds
  • Broken at 100' AGL
Conditions
  • Fog
Becoming Nov-16 @ 10:00 - Nov-16 @ 18:00
Wind Visibility
170° at 5 knots 7,998 meters
Clouds
  • No significant clouds
Conditions